This is the latest recevied weather packets stored in our database for station/object KJ6LNH-1. If no packets are shown the sender has not sent any weather packets the latest 10 day(s).
| Time | Temp. | Humidity | Pressure | Rain* | Wind** | Luminosity | Snow |
|---|---|---|---|---|---|---|---|
| 1777564507 | 15° C | 72% | 1013.2 hPa | 0 mm | - | - | - |
| 1777564207 | 15° C | 73% | 1013.2 hPa | 0 mm | - | - | - |
| 1777563611 | 14.44° C | 76% | 1013.1 hPa | 0 mm | - | - | - |
| 1777563308 | 13.89° C | 78% | 1013.1 hPa | 0 mm | - | - | - |
| 1777562407 | 13.33° C | 80% | 1013.2 hPa | 0 mm | - | - | - |
| 1777561209 | 12.78° C | 83% | 1013.1 hPa | 0 mm | - | - | - |
| 1777558807 | 11.11° C | 92% | 1012.9 hPa | 0 mm | - | - | - |
| 1777558210 | 10.56° C | 93% | 1012.9 hPa | 0 mm | - | - | - |
| 1777557908 | 10.56° C | 93% | 1012.8 hPa | 0 mm | - | - | - |
| 1777557307 | 10.56° C | 94% | 1012.9 hPa | 0 mm | - | - | - |
| 1777556707 | 10° C | 95% | 1012.8 hPa | 0 mm | - | - | - |
| 1777556107 | 10° C | 95% | 1012.8 hPa | 0 mm | - | - | - |
| 1777555508 | 9.44° C | 95% | 1012.8 hPa | 0 mm | - | - | - |
| 1777555210 | 9.44° C | 95% | 1012.8 hPa | 0 mm | - | - | - |
| 1777554908 | 10° C | 95% | 1012.8 hPa | 0 mm | - | - | - |
| 1777554607 | 9.44° C | 95% | 1012.7 hPa | 0 mm | - | - | - |
| 1777554307 | 9.44° C | 96% | 1012.7 hPa | 0 mm | - | - | - |
| 1777553408 | 9.44° C | 96% | 1012.7 hPa | 0 mm | - | - | - |
| 1777553108 | 9.44° C | 96% | 1012.7 hPa | 0 mm | - | - | - |
| 1777552507 | 9.44° C | 96% | 1012.6 hPa | 0 mm | - | - | - |
| 1777551907 | 9.44° C | 96% | 1012.6 hPa | 0 mm | - | - | - |
| 1777551607 | 9.44° C | 96% | 1012.6 hPa | 0 mm | - | - | - |
| 1777550109 | 10° C | 95% | 1012.5 hPa | 0 mm | - | - | - |
| 1777548907 | 10° C | 95% | 1012.6 hPa | 0 mm | - | - | - |
| 1777548608 | 10° C | 94% | 1012.5 hPa | 0 mm | - | - | - |
* Rain latest hour (hover to see other rain measurements)
** Current wind speed in m/s (hover to see current wind gust speed)